createdAt,value
2022-12-19T00:01:58.082Z,17.50
2022-12-19T00:04:26.143Z,16.23
2022-12-19T00:06:54.076Z,17.15
2022-12-19T00:09:23.420Z,14.95
2022-12-19T00:11:51.147Z,15.43
2022-12-19T00:14:18.851Z,14.02
2022-12-19T00:16:47.635Z,18.17
2022-12-19T00:19:15.962Z,19.20
2022-12-19T00:21:43.706Z,14.52
2022-12-19T00:24:21.196Z,11.85
2022-12-19T00:26:50.937Z,15.52
2022-12-19T00:29:18.840Z,15.10
2022-12-19T00:31:46.956Z,11.18
2022-12-19T00:34:16.003Z,14.73
2022-12-19T00:36:43.970Z,11.90
2022-12-19T00:39:11.825Z,14.00
2022-12-19T00:41:42.159Z,12.88
2022-12-19T00:44:13.932Z,17.38
2022-12-19T00:46:42.533Z,14.15
2022-12-19T00:49:13.929Z,12.23
2022-12-19T00:51:41.639Z,17.60
2022-12-19T00:54:11.458Z,13.68
2022-12-19T00:56:39.859Z,12.82
2022-12-19T00:59:08.797Z,13.77
2022-12-19T01:01:41.172Z,12.55
2022-12-19T01:04:30.373Z,12.07
2022-12-19T01:07:02.607Z,14.85
2022-12-19T01:09:34.978Z,16.97
2022-12-19T01:12:23.995Z,9.43
2022-12-19T01:14:54.647Z,15.48
2022-12-19T01:17:26.890Z,16.63
2022-12-19T01:19:54.684Z,10.73
2022-12-19T01:22:22.388Z,14.82
2022-12-19T01:24:50.127Z,14.45
2022-12-19T01:27:17.962Z,9.32
2022-12-19T01:29:52.441Z,11.80
2022-12-19T01:32:21.675Z,12.35
2022-12-19T01:34:50.736Z,14.40
2022-12-19T01:37:18.967Z,15.68
2022-12-19T01:39:47.215Z,15.75
2022-12-19T01:42:20.248Z,12.00
2022-12-19T01:45:33.150Z,15.80
2022-12-19T01:48:20.192Z,11.85
2022-12-19T01:51:00.541Z,18.52
2022-12-19T01:53:35.486Z,10.93
2022-12-19T01:56:10.784Z,14.10
2022-12-19T01:58:42.364Z,15.00
2022-12-19T02:01:10.317Z,16.77
2022-12-19T02:03:39.593Z,16.52
2022-12-19T02:06:17.697Z,15.77
2022-12-19T02:08:48.424Z,13.97
2022-12-19T02:11:16.237Z,16.73
2022-12-19T02:13:44.843Z,9.40
2022-12-19T02:16:25.183Z,14.32
2022-12-19T02:19:18.207Z,14.18
2022-12-19T02:21:55.065Z,12.85
2022-12-19T02:25:01.971Z,14.43
2022-12-19T02:28:04.375Z,12.15
2022-12-19T02:30:46.253Z,14.45
2022-12-19T02:33:18.931Z,15.32
2022-12-19T02:35:57.339Z,15.27
2022-12-19T02:38:32.882Z,13.63
2022-12-19T02:41:06.810Z,13.40
2022-12-19T02:43:39.973Z,18.20
2022-12-19T02:46:12.251Z,14.45
2022-12-19T02:48:42.168Z,24.42
2022-12-19T02:51:10.485Z,16.48
2022-12-19T02:53:40.267Z,17.65
2022-12-19T02:56:23.091Z,16.92
2022-12-19T02:59:04.688Z,14.15
2022-12-19T03:01:45.435Z,15.90
2022-12-19T03:04:22.119Z,15.85
2022-12-19T03:06:55.765Z,16.58
2022-12-19T03:09:33.305Z,15.75
2022-12-19T03:12:08.619Z,13.27
2022-12-19T03:14:38.386Z,15.70
2022-12-19T03:17:08.676Z,14.68
2022-12-19T03:19:39.604Z,16.88
2022-12-19T03:22:08.442Z,12.60
2022-12-19T03:24:36.264Z,14.10
2022-12-19T03:27:12.097Z,15.98
2022-12-19T03:32:14.854Z,12.50
2022-12-19T03:34:48.207Z,12.27
2022-12-19T03:37:20.917Z,12.20
2022-12-19T03:39:53.597Z,14.63
2022-12-19T03:42:43.750Z,15.23
2022-12-19T03:45:14.573Z,11.90
2022-12-19T03:47:50.277Z,17.27
2022-12-19T03:50:19.776Z,17.00
2022-12-19T03:52:53.651Z,12.77
2022-12-19T03:55:28.487Z,11.73
2022-12-19T03:58:03.856Z,10.95
2022-12-19T04:00:35.422Z,18.33
2022-12-19T04:03:06.302Z,17.33
2022-12-19T04:05:35.647Z,14.75
2022-12-19T04:08:07.653Z,13.43
2022-12-19T04:10:40.696Z,16.20
2022-12-19T04:13:12.260Z,13.48
2022-12-19T04:15:50.454Z,17.75
2022-12-19T04:18:21.041Z,11.98
2022-12-19T04:20:56.083Z,12.40
2022-12-19T04:23:29.605Z,14.15
2022-12-19T04:26:02.991Z,16.67
2022-12-19T04:28:35.910Z,12.63
2022-12-19T04:31:04.359Z,14.30
2022-12-19T04:33:33.568Z,18.83
2022-12-19T04:36:01.394Z,14.13
2022-12-19T04:38:29.155Z,15.18
2022-12-19T04:40:56.920Z,14.85
2022-12-19T04:43:24.894Z,14.82
2022-12-19T04:45:57.112Z,17.25
2022-12-19T04:48:25.659Z,16.17
2022-12-19T04:50:54.851Z,17.90
2022-12-19T04:53:22.598Z,17.20
2022-12-19T04:55:50.278Z,13.32
2022-12-19T04:58:21.814Z,17.23
2022-12-19T05:00:49.965Z,13.80
2022-12-19T05:03:17.765Z,19.30
2022-12-19T05:05:45.520Z,18.50
2022-12-19T05:08:14.687Z,14.00
2022-12-19T05:10:42.384Z,18.23
2022-12-19T05:13:10.445Z,16.48
2022-12-19T05:15:38.263Z,17.05
2022-12-19T05:18:06.092Z,17.80
2022-12-19T05:20:33.786Z,17.80
2022-12-19T05:23:05.019Z,14.18
2022-12-19T05:25:39.165Z,17.05
2022-12-19T05:28:06.926Z,19.25
2022-12-19T05:30:34.718Z,15.63
2022-12-19T05:33:02.466Z,18.02
2022-12-19T05:35:30.263Z,19.27
2022-12-19T05:37:58.002Z,17.35
2022-12-19T05:40:25.744Z,15.45
2022-12-19T05:42:55.115Z,17.38
2022-12-19T05:45:23.137Z,17.73
2022-12-19T05:47:50.948Z,19.45
2022-12-19T05:50:19.176Z,18.45
2022-12-19T05:52:52.502Z,18.98
2022-12-19T05:55:20.669Z,18.10
2022-12-19T05:57:48.411Z,18.70
2022-12-19T06:00:18.225Z,18.35
2022-12-19T06:02:46.053Z,18.67
2022-12-19T06:05:14.139Z,14.55
2022-12-19T06:07:41.831Z,17.50
2022-12-19T06:10:09.805Z,18.17
2022-12-19T06:12:37.565Z,17.13
2022-12-19T06:15:05.856Z,18.17
2022-12-19T06:17:34.962Z,17.48
2022-12-19T06:20:02.666Z,19.73
2022-12-19T06:22:30.411Z,19.30
2022-12-19T06:24:58.108Z,18.77
2022-12-19T06:27:25.875Z,14.65
2022-12-19T06:29:53.632Z,15.27
2022-12-19T06:32:21.361Z,19.75
2022-12-19T06:35:05.855Z,15.50
2022-12-19T06:37:33.604Z,15.63
2022-12-19T06:40:01.319Z,18.35
2022-12-19T06:42:28.141Z,17.02
2022-12-19T06:44:57.024Z,16.00
2022-12-19T06:47:25.753Z,15.98
2022-12-19T06:49:55.042Z,21.35
2022-12-19T06:52:22.758Z,18.23
2022-12-19T06:54:50.449Z,16.38
2022-12-19T06:57:18.194Z,15.35
2022-12-19T06:59:45.894Z,18.10
2022-12-19T07:02:28.272Z,17.42
2022-12-19T07:05:02.106Z,17.17
2022-12-19T07:07:30.136Z,14.40
2022-12-19T07:09:57.848Z,21.00
2022-12-19T07:12:25.591Z,16.38
2022-12-19T07:14:53.902Z,18.08
2022-12-19T07:17:23.367Z,19.60
2022-12-19T07:19:54.408Z,17.75
2022-12-19T07:22:24.779Z,20.52
2022-12-19T07:24:52.645Z,17.70
2022-12-19T07:27:20.389Z,16.52
2022-12-19T07:29:48.360Z,11.85
2022-12-19T07:32:16.096Z,18.35
2022-12-19T07:34:43.937Z,19.35
2022-12-19T07:37:11.823Z,19.73
2022-12-19T07:39:40.927Z,15.40
2022-12-19T07:42:08.636Z,17.27
2022-12-19T07:44:39.744Z,16.05
2022-12-19T07:47:10.369Z,18.77
2022-12-19T07:49:38.147Z,18.88
2022-12-19T07:52:06.038Z,19.95
2022-12-19T07:54:35.001Z,16.73
2022-12-19T07:57:05.064Z,17.63
2022-12-19T07:59:37.388Z,20.55
2022-12-19T08:02:07.281Z,15.93
2022-12-19T08:04:35.834Z,14.70
2022-12-19T08:07:03.832Z,18.77
2022-12-19T08:09:31.765Z,19.58
2022-12-19T08:11:59.949Z,19.23
2022-12-19T08:14:29.205Z,20.00
2022-12-19T08:17:19.885Z,18.50
2022-12-19T08:19:44.617Z,14.55
2022-12-19T08:22:12.332Z,16.10
2022-12-19T08:24:40.332Z,16.20
2022-12-19T08:27:08.329Z,14.55
2022-12-19T08:29:37.383Z,18.75
2022-12-19T08:32:05.583Z,15.43
2022-12-19T08:34:33.550Z,15.55
2022-12-19T08:37:01.301Z,14.43
2022-12-19T08:39:29.119Z,18.25
2022-12-19T08:41:57.156Z,18.67
2022-12-19T08:44:25.165Z,18.95
2022-12-19T08:46:54.311Z,15.68
2022-12-19T08:49:22.540Z,15.63
2022-12-19T08:51:50.625Z,14.80
2022-12-19T08:54:18.577Z,14.73
2022-12-19T08:56:47.236Z,16.50
2022-12-19T08:59:18.729Z,14.60
2022-12-19T09:01:54.108Z,16.80
2022-12-19T09:05:18.793Z,16.48
2022-12-19T09:07:10.038Z,18.15
2022-12-19T09:09:37.695Z,17.35
2022-12-19T09:12:05.524Z,16.77
2022-12-19T09:14:34.837Z,15.98
2022-12-19T09:17:04.871Z,19.25
2022-12-19T09:19:32.774Z,14.52
2022-12-19T09:22:01.061Z,17.65
2022-12-19T09:24:28.962Z,18.23
2022-12-19T09:26:56.677Z,19.80
2022-12-19T09:29:24.401Z,19.67
2022-12-19T09:31:56.350Z,16.92
2022-12-19T09:34:38.667Z,19.08
2022-12-19T09:37:08.418Z,15.10
2022-12-19T09:39:36.966Z,17.92
2022-12-19T09:42:21.445Z,11.07
2022-12-19T09:45:05.396Z,16.42
2022-12-19T09:47:34.897Z,16.90
2022-12-19T09:50:14.334Z,17.13
2022-12-19T09:52:48.097Z,17.65
2022-12-19T09:55:20.881Z,18.02
2022-12-19T09:57:57.094Z,17.70
2022-12-19T10:00:34.830Z,17.10
2022-12-19T10:03:08.501Z,13.95
2022-12-19T10:06:59.835Z,17.63
2022-12-19T10:08:35.034Z,16.13
2022-12-19T10:12:38.707Z,19.10
2022-12-19T10:14:20.081Z,13.43
2022-12-19T10:17:23.146Z,17.92
2022-12-19T10:20:00.181Z,18.48
2022-12-19T10:22:39.123Z,18.27
2022-12-19T10:25:24.469Z,14.30
2022-12-19T10:27:59.226Z,12.02
2022-12-19T10:30:31.826Z,16.48
2022-12-19T10:33:09.790Z,16.83
2022-12-19T10:35:44.134Z,17.02
2022-12-19T10:38:23.185Z,18.42
2022-12-19T10:40:55.001Z,16.02
2022-12-19T10:43:35.660Z,16.85
2022-12-19T10:46:17.941Z,17.58
2022-12-19T10:48:45.795Z,14.50
2022-12-19T10:51:14.657Z,13.35
2022-12-19T10:53:56.948Z,15.20
2022-12-19T10:56:33.186Z,16.20
2022-12-19T10:59:07.045Z,15.25
2022-12-19T11:01:39.331Z,14.95
2022-12-19T11:04:26.691Z,15.73
2022-12-19T11:07:07.538Z,13.40
2022-12-19T11:09:40.172Z,16.25
2022-12-19T11:18:07.844Z,15.43
2022-12-19T11:21:44.219Z,14.75
2022-12-19T11:28:36.688Z,16.00
2022-12-19T11:29:33.019Z,14.45
2022-12-19T11:29:34.919Z,15.77
2022-12-19T11:30:37.374Z,14.98
2022-12-19T11:32:43.056Z,12.82
2022-12-19T11:35:24.844Z,16.70
2022-12-19T11:37:57.186Z,16.50
2022-12-19T11:40:33.868Z,15.25
2022-12-19T11:43:43.309Z,15.77
2022-12-19T11:46:03.890Z,16.02
2022-12-19T11:48:39.715Z,16.13
2022-12-19T11:51:17.051Z,16.20
2022-12-19T11:53:54.109Z,14.73
2022-12-19T11:56:24.731Z,17.65
2022-12-19T11:58:58.959Z,16.40
2022-12-19T12:01:44.757Z,15.93
2022-12-19T12:04:35.997Z,14.90
2022-12-19T12:07:15.489Z,16.17
2022-12-19T12:16:09.397Z,15.02
2022-12-19T12:21:22.192Z,14.77
2022-12-19T12:30:04.651Z,12.15
2022-12-19T12:31:04.352Z,14.68
2022-12-19T12:31:49.209Z,14.50
2022-12-19T12:31:53.070Z,14.15
2022-12-19T12:31:55.325Z,14.00
2022-12-19T12:32:06.757Z,11.48
2022-12-19T12:35:32.683Z,14.43
2022-12-19T12:39:51.283Z,11.60
2022-12-19T12:42:31.054Z,11.65
2022-12-19T12:45:01.357Z,13.80
2022-12-19T12:47:30.195Z,12.45
2022-12-19T12:50:02.932Z,14.18
2022-12-19T12:52:34.942Z,14.82
2022-12-19T12:55:04.659Z,15.93
2022-12-19T12:57:37.620Z,15.80
2022-12-19T13:00:21.357Z,11.35
2022-12-19T13:02:53.800Z,14.40
2022-12-19T13:05:35.648Z,15.30
2022-12-19T13:08:23.779Z,16.08
2022-12-19T13:10:57.317Z,17.02
2022-12-19T13:13:50.659Z,17.08
2022-12-19T13:16:48.202Z,16.10
2022-12-19T13:19:24.138Z,13.75
2022-12-19T13:22:21.487Z,14.43
2022-12-19T13:24:51.730Z,13.90
2022-12-19T13:27:49.083Z,14.85
2022-12-19T13:30:19.760Z,15.23
2022-12-19T13:33:10.917Z,18.05
2022-12-19T13:39:44.293Z,15.65
2022-12-19T13:40:00.504Z,14.45
2022-12-19T13:41:45.002Z,14.60
2022-12-19T13:44:14.508Z,13.13
2022-12-19T13:46:43.770Z,16.88
2022-12-19T13:49:15.817Z,14.90
2022-12-19T13:51:47.762Z,14.68
2022-12-19T13:54:22.926Z,13.50
2022-12-19T13:56:51.839Z,14.27
2022-12-19T13:59:22.430Z,15.15
2022-12-19T14:01:52.836Z,14.02
2022-12-19T14:04:28.293Z,11.85
2022-12-19T14:07:01.497Z,13.95
2022-12-19T14:11:27.866Z,13.52
2022-12-19T14:13:51.240Z,14.00
2022-12-19T14:15:35.308Z,11.07
2022-12-19T14:18:21.829Z,12.82
2022-12-19T14:22:03.527Z,9.48
2022-12-19T14:23:43.424Z,14.68
2022-12-19T14:28:25.226Z,20.90
2022-12-19T14:29:09.750Z,13.90
2022-12-19T14:31:58.412Z,14.57
2022-12-19T14:35:12.878Z,10.93
2022-12-19T14:37:31.613Z,11.60
2022-12-19T14:40:25.283Z,14.10
2022-12-19T14:43:56.433Z,10.20
2022-12-19T14:54:05.763Z,11.52
2022-12-19T14:54:13.169Z,12.90
2022-12-19T14:54:40.046Z,12.82
2022-12-19T14:58:51.160Z,12.55
2022-12-19T15:01:07.034Z,12.00
2022-12-19T15:03:22.834Z,12.13
2022-12-19T15:05:53.309Z,11.85
2022-12-19T15:09:01.330Z,10.38
2022-12-19T15:11:55.556Z,12.57
2022-12-19T15:14:50.794Z,12.02
2022-12-19T15:17:24.061Z,12.95
2022-12-19T15:19:52.618Z,13.18
2022-12-19T15:22:21.706Z,13.15
2022-12-19T15:24:49.542Z,13.07
2022-12-19T15:27:18.350Z,12.50
2022-12-19T15:29:46.200Z,12.32
2022-12-19T15:32:15.713Z,12.55
2022-12-19T15:34:50.511Z,12.35
2022-12-19T15:37:18.614Z,12.05
2022-12-19T15:39:48.078Z,10.75
2022-12-19T15:42:19.915Z,12.32
2022-12-19T15:44:49.207Z,12.88
2022-12-19T15:47:19.737Z,12.15
2022-12-19T15:49:47.651Z,11.35
2022-12-19T15:52:18.286Z,11.85
2022-12-19T15:54:49.679Z,11.07
2022-12-19T15:57:28.236Z,11.68
2022-12-19T15:59:58.790Z,10.32
2022-12-19T16:02:56.291Z,11.45
2022-12-19T16:05:17.010Z,11.80
2022-12-19T16:07:44.865Z,11.38
2022-12-19T16:10:14.744Z,11.00
2022-12-19T16:12:44.994Z,10.05
2022-12-19T16:15:22.996Z,11.43
2022-12-19T16:17:50.706Z,11.63
2022-12-19T16:20:21.748Z,10.43
2022-12-19T16:22:49.462Z,9.60
2022-12-19T16:25:18.795Z,10.05
2022-12-19T16:27:56.709Z,10.02
2022-12-19T16:30:27.067Z,9.00
2022-12-19T16:32:55.384Z,9.13
2022-12-19T16:35:54.927Z,9.68
2022-12-19T16:38:13.338Z,12.77
2022-12-19T16:40:42.980Z,10.88
2022-12-19T16:43:16.905Z,10.20
2022-12-19T16:45:45.554Z,12.00
2022-12-19T16:48:20.255Z,14.27
2022-12-19T16:50:48.051Z,13.25
2022-12-19T16:53:16.408Z,12.80
2022-12-19T16:55:47.779Z,15.45
2022-12-19T16:58:19.862Z,15.80
2022-12-19T17:00:48.494Z,14.13
2022-12-19T17:03:29.327Z,11.52
2022-12-19T17:05:57.498Z,12.75
2022-12-19T17:08:25.344Z,11.93
2022-12-19T17:10:55.671Z,10.82
2022-12-19T17:13:24.613Z,11.75
2022-12-19T17:15:56.683Z,10.38
2022-12-19T17:18:29.599Z,10.57
2022-12-19T17:20:57.930Z,11.65
2022-12-19T17:23:28.941Z,10.52
2022-12-19T17:25:59.380Z,7.35
2022-12-19T17:28:27.991Z,10.73
2022-12-19T17:30:58.256Z,9.85
2022-12-19T17:33:29.773Z,9.55
2022-12-19T17:35:57.567Z,13.40
2022-12-19T17:38:27.204Z,13.13
2022-12-19T17:40:55.433Z,10.70
2022-12-19T17:43:24.521Z,11.05
2022-12-19T17:45:53.151Z,10.95
2022-12-19T17:48:27.335Z,10.73
2022-12-19T17:50:55.953Z,10.77
2022-12-19T17:53:24.432Z,12.60
2022-12-19T17:55:52.718Z,11.25
2022-12-19T17:58:21.557Z,11.43
2022-12-19T18:00:51.966Z,11.30
2022-12-19T18:03:23.620Z,11.05
2022-12-19T18:05:53.134Z,11.80
2022-12-19T18:08:27.336Z,11.48
2022-12-19T18:10:56.549Z,9.65
2022-12-19T18:13:25.394Z,11.02
2022-12-19T18:15:58.389Z,11.23
2022-12-19T18:18:29.247Z,11.75
2022-12-19T18:20:57.753Z,9.77
2022-12-19T18:23:25.695Z,10.80
2022-12-19T18:26:00.876Z,10.18
2022-12-19T18:28:29.150Z,9.82
2022-12-19T18:31:01.304Z,9.45
2022-12-19T18:33:32.961Z,9.23
2022-12-19T18:36:00.762Z,9.60
2022-12-19T18:38:28.462Z,10.15
2022-12-19T18:40:56.412Z,11.60
2022-12-19T18:43:24.265Z,12.35
2022-12-19T18:45:53.354Z,12.32
2022-12-19T18:48:27.603Z,14.05
2022-12-19T18:50:56.471Z,14.15
2022-12-19T18:53:34.535Z,10.85
2022-12-19T18:56:04.305Z,11.02
2022-12-19T18:58:32.440Z,10.07
2022-12-19T19:01:01.685Z,9.90
2022-12-19T19:03:33.545Z,9.68
2022-12-19T19:06:01.460Z,9.52
2022-12-19T19:08:31.347Z,9.90
2022-12-19T19:11:07.980Z,9.23
2022-12-19T19:13:35.780Z,9.20
2022-12-19T19:16:13.247Z,9.43
2022-12-19T19:18:43.205Z,10.38
2022-12-19T19:21:14.312Z,9.73
2022-12-19T19:23:47.065Z,11.43
2022-12-19T19:26:14.808Z,10.40
2022-12-19T19:28:47.023Z,12.02
2022-12-19T19:31:20.014Z,14.05
2022-12-19T19:33:52.786Z,11.85
2022-12-19T19:36:26.725Z,11.32
2022-12-19T19:38:56.853Z,10.68
2022-12-19T19:41:29.404Z,10.98
2022-12-19T19:43:57.128Z,9.90
2022-12-19T19:46:25.316Z,10.23
2022-12-19T19:48:55.016Z,9.82
2022-12-19T19:51:22.725Z,10.93
2022-12-19T19:53:52.057Z,11.90
2022-12-19T19:56:19.903Z,11.90
2022-12-19T19:58:47.571Z,11.00
2022-12-19T20:01:15.783Z,10.98
2022-12-19T20:03:44.865Z,19.02
2022-12-19T20:06:14.811Z,21.30
2022-12-19T20:08:42.656Z,31.00
2022-12-19T20:11:10.974Z,23.85
2022-12-19T20:13:39.347Z,26.77
2022-12-19T20:16:09.939Z,19.90
2022-12-19T20:18:39.081Z,15.98
2022-12-19T20:21:13.137Z,14.43
2022-12-19T20:23:43.853Z,14.25
2022-12-19T20:26:13.424Z,11.75
2022-12-19T20:28:48.479Z,20.10
2022-12-19T20:33:46.135Z,16.48
2022-12-19T20:36:15.243Z,21.25
2022-12-19T20:38:44.618Z,13.57
2022-12-19T20:41:12.498Z,12.13
2022-12-19T20:43:41.257Z,11.55
2022-12-19T20:46:11.882Z,8.82
2022-12-19T20:48:40.303Z,9.00
2022-12-19T20:51:08.617Z,10.48
2022-12-19T20:53:37.709Z,9.40
2022-12-19T20:56:09.076Z,8.18
2022-12-19T20:58:38.671Z,8.45
2022-12-19T21:01:09.360Z,8.88
2022-12-19T21:03:38.456Z,7.93
2022-12-19T21:06:07.852Z,7.15
2022-12-19T21:08:36.529Z,7.47
2022-12-19T21:11:08.062Z,7.40
2022-12-19T21:13:36.880Z,7.60
2022-12-19T21:16:08.549Z,7.38
2022-12-19T21:18:37.077Z,7.32
2022-12-19T21:21:05.244Z,6.80
2022-12-19T21:23:33.543Z,7.40
2022-12-19T21:26:03.287Z,7.43
2022-12-19T21:28:33.211Z,6.97
2022-12-19T21:31:03.374Z,10.88
2022-12-19T21:33:31.782Z,7.30
2022-12-19T21:36:06.701Z,9.32
2022-12-19T21:38:34.748Z,16.77
2022-12-19T21:41:04.613Z,9.57
2022-12-19T21:43:34.856Z,8.05
2022-12-19T21:46:09.626Z,14.98
2022-12-19T21:48:39.262Z,8.30
2022-12-19T21:51:07.926Z,7.78
2022-12-19T21:53:36.547Z,7.90
2022-12-19T21:56:06.179Z,7.00
2022-12-19T21:58:35.985Z,7.05
2022-12-19T22:01:08.630Z,6.78
2022-12-19T22:03:36.952Z,6.82
2022-12-19T22:06:05.749Z,6.80
2022-12-19T22:08:33.696Z,9.98
2022-12-19T22:11:01.994Z,10.15
2022-12-19T22:13:30.701Z,7.93
2022-12-19T22:16:04.251Z,10.95
2022-12-19T22:18:34.966Z,10.75
2022-12-19T22:21:03.447Z,23.98
2022-12-19T22:23:32.002Z,27.10
2022-12-19T22:26:08.423Z,9.13
2022-12-19T22:28:37.712Z,20.45
2022-12-19T22:31:16.632Z,9.13
2022-12-19T22:33:44.549Z,30.85
2022-12-19T22:36:15.348Z,21.13
2022-12-19T22:38:46.070Z,14.07
2022-12-19T22:41:14.565Z,13.70
2022-12-19T22:43:43.067Z,9.60
2022-12-19T22:46:13.784Z,8.88
2022-12-19T22:48:42.803Z,3.85
2022-12-19T22:51:11.297Z,3.30
2022-12-19T22:53:40.187Z,2.70
2022-12-19T22:56:12.389Z,2.45
2022-12-19T22:58:42.321Z,2.97
2022-12-19T23:01:16.321Z,2.38
2022-12-19T23:03:44.620Z,2.50
2022-12-19T23:06:13.457Z,2.70
2022-12-19T23:08:41.315Z,3.00
2022-12-19T23:11:10.926Z,2.80
2022-12-19T23:13:39.218Z,2.50
2022-12-19T23:16:08.210Z,2.55
2022-12-19T23:18:37.956Z,2.70
2022-12-19T23:21:09.433Z,2.38
2022-12-19T23:23:39.933Z,2.28
2022-12-19T23:26:15.184Z,2.50
2022-12-19T23:28:44.226Z,2.38
2022-12-19T23:31:14.454Z,2.22
2022-12-19T23:33:43.646Z,2.45
2022-12-19T23:36:11.707Z,3.22
2022-12-19T23:38:40.717Z,2.58
2022-12-19T23:41:10.818Z,2.60
2022-12-19T23:43:39.533Z,5.60
2022-12-19T23:46:08.489Z,5.20
2022-12-19T23:48:36.570Z,4.95
2022-12-19T23:51:07.909Z,4.22
2022-12-19T23:53:36.464Z,3.30
2022-12-19T23:56:06.932Z,2.20
2022-12-19T23:58:35.190Z,2.15
